createdAt,value
2023-01-08T00:41:52.819Z,9.80
2023-01-08T02:40:14.543Z,10.30
2023-01-08T02:43:07.826Z,10.30
2023-01-08T02:49:06.445Z,10.30
2023-01-08T02:52:03.632Z,10.20
2023-01-08T02:54:59.505Z,10.20
2023-01-08T03:00:46.329Z,10.20
2023-01-08T03:06:23.117Z,10.10
2023-01-08T03:12:12.489Z,10.10
2023-01-08T03:15:07.379Z,10.20
2023-01-08T03:29:52.796Z,10.30
2023-01-08T09:49:39.498Z,10.30
2023-01-08T09:52:43.721Z,16.20
2023-01-08T09:58:53.320Z,14.90
2023-01-08T10:01:50.663Z,13.50
2023-01-08T10:07:40.415Z,12.00
2023-01-08T10:13:27.221Z,11.60
2023-01-08T10:16:24.470Z,11.40
2023-01-08T10:22:24.982Z,11.10
2023-01-08T10:28:11.419Z,11.10
2023-01-08T10:31:05.404Z,11.00
2023-01-08T10:33:59.338Z,11.10
2023-01-08T10:36:52.418Z,11.10
2023-01-08T10:39:52.233Z,11.30
2023-01-08T10:45:42.549Z,11.50
2023-01-08T10:48:38.254Z,11.50
2023-01-08T10:51:32.682Z,11.50
2023-01-08T10:54:26.453Z,11.40
2023-01-08T11:03:19.391Z,11.20
2023-01-08T11:06:12.494Z,11.20
2023-01-08T11:14:47.355Z,11.30
2023-01-08T11:17:43.169Z,11.30
2023-01-08T11:23:30.383Z,11.50
2023-01-08T11:26:23.593Z,11.50
2023-01-08T11:31:59.248Z,11.70
2023-01-08T11:34:59.553Z,11.70
2023-01-08T11:37:53.490Z,11.90
2023-01-08T11:40:49.385Z,12.00
2023-01-08T11:46:25.494Z,12.00
2023-01-08T11:52:06.371Z,12.10
2023-01-08T11:54:59.787Z,12.20
2023-01-08T11:57:56.833Z,12.20
2023-01-08T12:00:52.607Z,12.20
2023-01-08T12:09:49.463Z,12.10
2023-01-08T12:12:59.074Z,12.10
2023-01-08T12:27:48.445Z,12.10
2023-01-08T12:33:27.914Z,11.90
2023-01-08T12:36:25.484Z,11.80
2023-01-08T12:39:23.579Z,11.70
2023-01-08T12:42:24.967Z,11.70
2023-01-08T12:45:21.855Z,11.70
2023-01-08T12:51:19.593Z,11.80
2023-01-08T12:57:11.228Z,11.80
2023-01-08T13:11:46.647Z,12.00
2023-01-08T13:17:44.534Z,12.10
2023-01-08T13:20:43.413Z,11.90
2023-01-08T13:29:34.710Z,12.40
2023-01-08T13:35:35.846Z,12.30
2023-01-08T13:50:26.168Z,12.40
2023-01-08T13:53:21.827Z,12.40
2023-01-08T13:59:08.034Z,12.30
2023-01-08T14:04:59.005Z,12.10
2023-01-08T14:07:52.241Z,11.90
2023-01-08T14:10:43.390Z,11.70
2023-01-08T14:13:40.757Z,11.60
2023-01-08T14:22:22.847Z,11.50
2023-01-08T14:31:08.760Z,11.20
2023-01-08T14:34:07.776Z,11.00
2023-01-08T14:54:32.484Z,10.70
2023-01-08T15:00:08.292Z,10.70
2023-01-08T15:05:58.788Z,10.70
2023-01-08T15:36:23.724Z,10.10
2023-01-08T15:45:25.911Z,9.90
2023-01-08T15:48:30.949Z,9.80
2023-01-08T15:54:26.986Z,9.60
2023-01-08T16:00:16.787Z,9.50
2023-01-08T16:08:59.309Z,9.30
2023-01-08T16:11:57.879Z,9.20
2023-01-08T16:26:45.487Z,9.00
2023-01-08T16:29:42.073Z,9.00
2023-01-08T16:35:32.808Z,9.00
2023-01-08T16:41:28.322Z,9.20
2023-01-08T16:56:13.259Z,9.40
2023-01-08T16:59:22.879Z,9.30
2023-01-08T17:05:18.705Z,8.80
2023-01-08T17:14:15.569Z,8.90
2023-01-08T17:22:38.894Z,8.40
2023-01-08T17:25:29.422Z,8.20
2023-01-08T17:31:19.739Z,8.20
2023-01-08T17:37:07.621Z,8.10
2023-01-08T17:42:52.258Z,8.10
2023-01-08T17:45:49.763Z,8.10
2023-01-08T17:48:43.925Z,8.20
2023-01-08T17:51:38.819Z,8.20
2023-01-08T17:57:14.913Z,8.30
2023-01-08T18:00:10.736Z,8.40
2023-01-08T18:06:08.470Z,8.20
2023-01-08T18:17:43.914Z,7.90
2023-01-08T18:20:37.855Z,7.80
2023-01-08T18:26:27.690Z,7.80
2023-01-08T18:41:01.203Z,8.10
2023-01-08T18:46:40.900Z,8.20
2023-01-08T18:55:15.591Z,8.30
2023-01-08T19:01:09.350Z,8.50
2023-01-08T19:04:06.367Z,8.50
2023-01-08T19:07:00.614Z,8.60
2023-01-08T19:36:03.673Z,8.40
2023-01-08T19:42:14.020Z,8.30
2023-01-08T19:45:10.949Z,8.30
2023-01-08T19:51:01.940Z,8.30
2023-01-08T19:53:59.722Z,8.30
2023-01-08T20:08:39.728Z,8.30
2023-01-08T20:11:37.869Z,8.30
2023-01-08T20:14:35.846Z,8.40
2023-01-08T20:17:33.994Z,8.50
2023-01-08T20:23:19.729Z,8.40
2023-01-08T20:29:07.642Z,8.60
2023-01-08T20:35:05.531Z,8.70
2023-01-08T20:43:37.938Z,8.70
2023-01-08T20:46:35.327Z,8.80
2023-01-08T20:49:32.106Z,8.70
2023-01-08T20:55:21.736Z,8.60
2023-01-08T21:01:06.610Z,8.50
2023-01-08T21:04:04.897Z,8.50
2023-01-08T21:12:36.497Z,8.60
2023-01-08T21:15:30.203Z,8.60
2023-01-08T21:21:14.521Z,8.50
2023-01-08T21:26:54.581Z,8.40
2023-01-08T21:32:43.904Z,8.40
2023-01-08T21:38:22.733Z,8.30
2023-01-08T21:44:10.784Z,8.20
2023-01-08T21:50:08.952Z,8.10
2023-01-08T22:01:41.835Z,8.10
2023-01-08T22:04:43.055Z,8.10
2023-01-08T22:13:25.662Z,7.20
2023-01-08T22:22:24.620Z,8.10
2023-01-08T22:28:25.734Z,8.00
2023-01-08T22:40:17.514Z,8.10
2023-01-08T22:48:48.618Z,8.10
2023-01-08T22:51:42.864Z,8.00
2023-01-08T22:54:37.845Z,8.00
2023-01-08T23:00:30.934Z,6.40
2023-01-08T23:06:24.931Z,7.80
2023-01-08T23:12:23.888Z,7.70
2023-01-08T23:15:21.629Z,7.60
2023-01-08T23:20:55.051Z,7.50
2023-01-08T23:29:39.985Z,7.60
2023-01-08T23:35:28.422Z,7.70
2023-01-08T23:43:57.934Z,8.00
2023-01-08T23:58:27.110Z,8.00
